Time;durP1;ratioP1;P1;durP2;ratioP2;P2;SDS_P1;SDS_P2;PMS_P1;PMS_P2;Temp;Humidity;BMP_temperature;BMP_pressure;BME280_temperature;BME280_humidity;BME280_pressure;Samples;Min_cycle;Max_cycle;Signal;HPM_P1;HPM_P2
2023/02/06 00:02:23;;;;;;;12.48;8.63;;;0.20;80.50;;;;;;5106682;28;20039;-49
2023/02/06 00:04:49;;;;;;;14.27;10.20;;;0.20;80.60;;;;;;5100450;28;20390;-50
2023/02/06 00:07:14;;;;;;;14.85;9.18;;;0.10;80.80;;;;;;5076787;28;20035;-58
2023/02/06 00:09:41;;;;;;;13.27;8.73;;;0.20;81.00;;;;;;5090387;28;20031;-56
2023/02/06 00:12:06;;;;;;;11.02;8.10;;;0.20;80.60;;;;;;5093294;28;20432;-60
2023/02/06 00:14:32;;;;;;;14.73;9.00;;;0.20;80.50;;;;;;5100497;28;20024;-59
2023/02/06 00:16:59;;;;;;;13.55;9.13;;;0.20;80.60;;;;;;5081083;28;20055;-52
2023/02/06 00:19:25;;;;;;;13.00;8.82;;;0.20;80.50;;;;;;5081607;28;20029;-52
2023/02/06 00:21:51;;;;;;;13.18;9.23;;;0.10;80.30;;;;;;5086816;28;20061;-58
2023/02/06 00:24:16;;;;;;;13.43;9.40;;;0.10;80.30;;;;;;5098990;28;20028;-51
2023/02/06 00:26:42;;;;;;;10.77;8.23;;;0.10;80.30;;;;;;5094187;28;20405;-52
2023/02/06 00:29:08;;;;;;;12.98;8.68;;;0.10;80.40;;;;;;5088840;28;20028;-49
2023/02/06 00:31:33;;;;;;;11.70;8.10;;;0.10;80.20;;;;;;5086398;28;20075;-61
2023/02/06 00:33:59;;;;;;;13.27;9.52;;;0.10;80.10;;;;;;5092005;28;20477;-60
2023/02/06 00:36:25;;;;;;;12.52;8.50;;;0.10;79.80;;;;;;5087572;28;20039;-58
2023/02/06 00:38:50;;;;;;;12.13;8.90;;;0.10;79.70;;;;;;5094061;28;20378;-58
2023/02/06 00:41:16;;;;;;;12.32;8.30;;;0.10;79.70;;;;;;5080225;28;20093;-60
2023/02/06 00:43:42;;;;;;;13.60;8.38;;;0.10;79.60;;;;;;5081372;28;20718;-60
2023/02/06 00:46:08;;;;;;;11.23;8.32;;;0.10;79.60;;;;;;5099342;28;20036;-59
2023/02/06 00:48:33;;;;;;;11.57;8.40;;;0.10;79.40;;;;;;5080821;28;20067;-59
2023/02/06 00:50:59;;;;;;;11.23;8.00;;;0.10;79.20;;;;;;5086873;28;20032;-60
2023/02/06 00:53:25;;;;;;;11.80;8.80;;;0.10;79.30;;;;;;5076009;28;20107;-60
2023/02/06 00:55:50;;;;;;;12.15;8.75;;;0.10;79.40;;;;;;5075379;28;20061;-58
2023/02/06 00:58:16;;;;;;;11.10;7.68;;;0.10;79.40;;;;;;5097516;28;20093;-61
2023/02/06 01:00:42;;;;;;;10.68;7.63;;;0.10;79.50;;;;;;5084297;28;20119;-61
2023/02/06 01:03:08;;;;;;;10.00;7.63;;;0.10;79.30;;;;;;5081640;28;20033;-59
2023/02/06 01:05:34;;;;;;;11.75;7.82;;;0.10;79.30;;;;;;5089059;28;20039;-61
2023/02/06 01:07:59;;;;;;;10.32;7.25;;;0.10;79.40;;;;;;5096453;28;20473;-61
2023/02/06 01:10:25;;;;;;;12.95;8.15;;;0.10;79.30;;;;;;5092142;28;20039;-55
2023/02/06 01:12:50;;;;;;;11.77;8.10;;;0.10;79.10;;;;;;5097641;28;20488;-56
2023/02/06 01:15:16;;;;;;;10.88;7.50;;;0.10;79.10;;;;;;5100003;28;20062;-58
2023/02/06 01:17:42;;;;;;;10.57;7.45;;;0.10;79.00;;;;;;5098105;28;20030;-58
2023/02/06 01:20:10;;;;;;;9.70;7.10;;;0.10;79.10;;;;;;5097386;28;20477;-58
2023/02/06 01:22:36;;;;;;;10.10;7.20;;;0.10;78.90;;;;;;5099954;28;20032;-49
2023/02/06 01:25:03;;;;;;;10.52;7.68;;;0.10;78.90;;;;;;5089485;28;20389;-50
2023/02/06 01:27:28;;;;;;;12.90;8.18;;;0.10;78.80;;;;;;5100859;28;20024;-52
2023/02/06 01:29:54;;;;;;;11.38;7.68;;;0.10;78.90;;;;;;5095863;28;20028;-50
2023/02/06 01:32:20;;;;;;;10.85;8.48;;;0.10;78.80;;;;;;5092216;28;20040;-59
2023/02/06 01:34:45;;;;;;;9.63;7.78;;;0.10;78.70;;;;;;5086636;28;20032;-59
2023/02/06 01:37:11;;;;;;;12.63;8.02;;;0.10;78.90;;;;;;5089229;28;20066;-62
2023/02/06 01:39:36;;;;;;;11.27;7.75;;;0.10;78.80;;;;;;5086579;28;20028;-62
2023/02/06 01:42:02;;;;;;;11.18;7.78;;;0.10;78.70;;;;;;5089086;28;20454;-62
2023/02/06 01:44:30;;;;;;;11.43;7.55;;;0.10;78.70;;;;;;5100154;28;20477;-62
2023/02/06 01:46:56;;;;;;;11.07;7.55;;;0.10;78.50;;;;;;5095536;28;20039;-60
2023/02/06 01:49:36;;;;;;;12.05;7.25;;;0.10;78.80;;;;;;5096356;28;20032;-60
2023/02/06 01:52:14;;;;;;;11.95;7.70;;;0.10;78.90;;;;;;5094553;28;20594;-60
2023/02/06 01:54:42;;;;;;;12.18;8.20;;;0.10;78.90;;;;;;5085472;28;20111;-60
2023/02/06 01:57:11;;;;;;;10.77;7.63;;;0.10;78.80;;;;;;5097222;28;20118;-62
2023/02/06 01:59:40;;;;;;;11.65;7.70;;;0.10;78.70;;;;;;5091486;28;20033;-63
2023/02/06 02:02:06;;;;;;;12.32;8.20;;;0.10;78.70;;;;;;5089964;28;20032;-54
2023/02/06 02:04:32;;;;;;;10.70;7.65;;;0.00;78.80;;;;;;5095876;28;20043;-54
2023/02/06 02:07:21;;;;;;;11.65;8.00;;;0.10;79.00;;;;;;5081102;28;20455;-60
2023/02/06 02:09:47;;;;;;;11.85;8.32;;;0.00;79.10;;;;;;5091267;28;20040;-61
2023/02/06 02:12:13;;;;;;;12.85;8.55;;;0.00;79.00;;;;;;5092794;28;20021;-54
2023/02/06 02:14:42;;;;;;;12.05;8.30;;;0.00;79.30;;;;;;5095743;28;20034;-52
2023/02/06 02:17:26;;;;;;;11.52;8.20;;;0.00;79.20;;;;;;5087148;28;20042;-60
2023/02/06 02:20:23;;;;;;;10.60;7.80;;;-0.10;79.40;;;;;;5099853;28;20031;-60
2023/02/06 02:22:57;;;;;;;12.38;8.55;;;-0.10;79.50;;;;;;5095028;28;20097;-59
2023/02/06 02:25:54;;;;;;;10.45;8.38;;;-0.10;79.80;;;;;;5084186;28;20036;-49
2023/02/06 02:28:38;;;;;;;11.65;8.73;;;-0.10;80.00;;;;;;5072617;28;20332;-48
2023/02/06 02:31:12;;;;;;;13.60;8.50;;;-0.20;80.10;;;;;;5085840;28;20032;-63
2023/02/06 02:34:03;;;;;;;12.88;9.38;;;-0.20;80.20;;;;;;5090534;28;20032;-63
2023/02/06 02:36:31;;;;;;;14.05;8.73;;;-0.20;80.20;;;;;;5086385;28;20039;-60
2023/02/06 02:39:15;;;;;;;13.60;8.65;;;-0.30;80.30;;;;;;5091658;28;20032;-60
2023/02/06 02:41:58;;;;;;;11.50;8.27;;;-0.30;80.40;;;;;;5083404;28;20032;-51
2023/02/06 02:44:24;;;;;;;15.32;10.10;;;-0.30;80.60;;;;;;5081737;28;20077;-52
2023/02/06 02:46:53;;;;;;;13.75;9.65;;;-0.40;80.80;;;;;;5098263;28;20110;-55
2023/02/06 02:49:23;;;;;;;12.02;8.35;;;-0.40;80.90;;;;;;5080930;28;20050;-54
2023/02/06 02:51:50;;;;;;;14.48;9.65;;;-0.40;81.00;;;;;;5100528;28;20142;-61
2023/02/06 02:54:16;;;;;;;13.35;8.98;;;-0.40;81.10;;;;;;5098223;28;20466;-61
2023/02/06 02:56:42;;;;;;;13.70;9.75;;;-0.40;81.30;;;;;;5085632;28;20052;-52
2023/02/06 02:59:22;;;;;;;13.35;8.82;;;-0.40;81.50;;;;;;5094161;28;20035;-51
2023/02/06 03:02:14;;;;;;;13.20;9.23;;;-0.40;81.60;;;;;;5101910;28;20039;-61
2023/02/06 03:04:54;;;;;;;13.27;9.18;;;-0.50;81.60;;;;;;5072813;28;20619;-60
2023/02/06 03:08:05;;;;;;;14.55;9.80;;;-0.50;81.80;;;;;;5088788;28;20110;-50
2023/02/06 03:10:34;;;;;;;13.90;9.18;;;-0.40;81.80;;;;;;5073118;28;20079;-61
2023/02/06 03:13:08;;;;;;;12.73;9.15;;;-0.50;81.90;;;;;;5095959;28;20032;-60
2023/02/06 03:15:56;;;;;;;14.45;10.35;;;-0.40;82.10;;;;;;5091611;28;20050;-59
2023/02/06 03:18:28;;;;;;;15.15;9.88;;;-0.40;82.10;;;;;;5087900;28;20024;-59
2023/02/06 03:20:55;;;;;;;14.40;9.57;;;-0.40;82.30;;;;;;5097737;28;20032;-64
2023/02/06 03:23:29;;;;;;;15.00;9.63;;;-0.40;82.30;;;;;;5094467;28;20388;-65
2023/02/06 03:25:58;;;;;;;12.65;9.38;;;-0.40;82.40;;;;;;5093030;28;20478;-60
2023/02/06 03:28:30;;;;;;;13.57;9.25;;;-0.40;82.50;;;;;;5095731;28;20036;-60
2023/02/06 03:30:57;;;;;;;;;;;-0.40;82.50;;;;;;5093140;28;20024;-60
2023/02/06 03:33:32;;;;;;;11.63;8.23;;;-0.40;82.60;;;;;;5091313;28;20292;-62
2023/02/06 03:35:58;;;;;;;15.88;10.02;;;-0.40;82.50;;;;;;5101564;28;20024;-62
2023/02/06 03:38:24;;;;;;;12.43;8.90;;;-0.40;82.60;;;;;;5100184;28;20032;-62
2023/02/06 03:40:53;;;;;;;13.57;9.15;;;-0.40;82.40;;;;;;5079544;28;20032;-61
2023/02/06 03:43:23;;;;;;;13.70;9.10;;;-0.40;82.50;;;;;;5100096;28;20108;-62
2023/02/06 03:45:53;;;;;;;12.75;9.27;;;-0.40;82.50;;;;;;5100545;28;20165;-50
2023/02/06 03:48:33;;;;;;;16.15;10.63;;;-0.40;82.60;;;;;;5101565;28;20071;-52
2023/02/06 03:51:02;;;;;;;12.32;9.68;;;-0.40;82.70;;;;;;5080190;28;20028;-60
2023/02/06 03:53:30;;;;;;;13.50;9.30;;;-0.40;82.90;;;;;;5091626;28;20343;-60
2023/02/06 03:56:00;;;;;;;13.48;9.68;;;-0.40;83.10;;;;;;5085613;28;20531;-58
2023/02/06 03:58:26;;;;;;;15.88;9.85;;;-0.40;83.30;;;;;;5075114;28;20074;-59
2023/02/06 04:00:52;;;;;;;13.05;9.23;;;-0.50;83.50;;;;;;5081099;28;20039;-65
2023/02/06 04:03:20;;;;;;;14.50;10.23;;;-0.40;83.50;;;;;;5090374;28;20539;-65
2023/02/06 04:05:46;;;;;;;11.45;8.63;;;-0.40;83.60;;;;;;5089012;28;20027;-60
2023/02/06 04:08:11;;;;;;;11.57;8.50;;;-0.40;83.60;;;;;;5084437;28;20035;-60
2023/02/06 04:10:37;;;;;;;13.25;9.27;;;-0.40;83.60;;;;;;5094825;28;20027;-61
2023/02/06 04:13:03;;;;;;;13.77;9.57;;;-0.40;83.70;;;;;;5099230;28;20094;-60
2023/02/06 04:15:28;;;;;;;13.38;9.32;;;-0.40;83.70;;;;;;5092572;28;20034;-60
2023/02/06 04:17:54;;;;;;;12.75;8.55;;;-0.40;83.70;;;;;;5086812;28;20037;-60
2023/02/06 04:20:20;;;;;;;13.05;9.15;;;-0.40;83.90;;;;;;5071851;28;20132;-61
2023/02/06 04:22:46;;;;;;;12.73;8.88;;;-0.30;84.00;;;;;;5088107;28;20036;-61
2023/02/06 04:25:11;;;;;;;11.75;8.10;;;-0.30;84.20;;;;;;5082719;28;20078;-51
2023/02/06 04:27:37;;;;;;;11.10;8.40;;;-0.30;84.30;;;;;;5093039;28;20493;-51
2023/02/06 04:30:05;;;;;;;12.77;8.13;;;-0.20;84.40;;;;;;5101136;28;20058;-50
2023/02/06 04:32:30;;;;;;;12.20;8.70;;;-0.20;84.40;;;;;;5090438;28;20784;-51
2023/02/06 04:34:56;;;;;;;12.27;8.23;;;-0.10;84.60;;;;;;5094788;28;20028;-52
2023/02/06 04:37:22;;;;;;;11.40;8.30;;;-0.10;84.60;;;;;;5093939;28;20031;-57
2023/02/06 04:39:47;;;;;;;11.82;8.50;;;-0.10;84.50;;;;;;5097402;28;20380;-57
2023/02/06 04:42:13;;;;;;;12.57;8.57;;;-0.10;84.50;;;;;;5088985;28;20040;-65
2023/02/06 04:44:39;;;;;;;11.65;9.05;;;0.00;84.60;;;;;;5095463;28;20040;-64
2023/02/06 04:47:05;;;;;;;13.18;9.45;;;0.00;84.60;;;;;;5084162;28;20066;-61
2023/02/06 04:49:30;;;;;;;11.18;8.30;;;0.00;84.60;;;;;;5091405;28;20067;-60
2023/02/06 04:51:56;;;;;;;11.15;7.93;;;0.00;84.60;;;;;;5098908;28;20032;-51
2023/02/06 04:54:22;;;;;;;11.70;8.05;;;0.00;84.70;;;;;;5099527;28;20023;-54
2023/02/06 04:56:47;;;;;;;12.90;8.68;;;0.00;84.80;;;;;;5109558;28;20059;-60
2023/02/06 04:59:14;;;;;;;12.20;8.27;;;0.00;84.80;;;;;;5090636;28;20032;-58
2023/02/06 05:01:39;;;;;;;13.35;9.40;;;0.00;84.60;;;;;;5091512;28;20054;-60
2023/02/06 05:04:06;;;;;;;11.73;8.68;;;0.10;84.70;;;;;;5094031;28;20035;-60
2023/02/06 05:06:32;;;;;;;13.23;8.57;;;0.10;84.80;;;;;;5105104;28;20381;-59
2023/02/06 05:08:58;;;;;;;12.82;8.80;;;0.00;84.80;;;;;;5095423;28;20473;-59
2023/02/06 05:11:24;;;;;;;10.45;8.27;;;0.00;84.50;;;;;;5090894;28;20056;-62
2023/02/06 05:13:50;;;;;;;10.60;8.10;;;0.00;84.60;;;;;;5096443;28;20032;-62
2023/02/06 05:16:16;;;;;;;10.75;8.55;;;0.00;84.50;;;;;;5105301;28;20174;-64
2023/02/06 05:18:46;;;;;;;11.73;8.82;;;0.00;84.40;;;;;;5088555;28;20047;-65
2023/02/06 05:21:13;;;;;;;9.77;8.00;;;0.00;84.40;;;;;;5086565;28;20085;-49
2023/02/06 05:23:38;;;;;;;12.25;8.52;;;0.00;84.60;;;;;;5098704;28;20123;-47
2023/02/06 05:26:05;;;;;;;11.68;8.57;;;0.00;84.80;;;;;;5101227;28;20447;-59
2023/02/06 05:28:32;;;;;;;12.15;8.45;;;0.00;84.80;;;;;;5102981;28;20457;-59
2023/02/06 05:31:01;;;;;;;11.55;8.88;;;0.00;84.80;;;;;;5093546;28;20032;-50
2023/02/06 05:33:27;;;;;;;10.73;7.35;;;0.00;84.80;;;;;;5086971;28;20024;-51
2023/02/06 05:35:53;;;;;;;11.20;7.97;;;0.00;84.80;;;;;;5081876;28;20466;-62
2023/02/06 05:38:19;;;;;;;10.27;7.75;;;0.00;84.80;;;;;;5090668;28;20031;-62
2023/02/06 05:40:45;;;;;;;10.35;8.02;;;0.00;84.80;;;;;;5095317;28;20036;-60
2023/02/06 05:43:11;;;;;;;10.98;8.30;;;0.00;84.80;;;;;;5080891;28;20115;-60
2023/02/06 05:45:36;;;;;;;12.40;8.02;;;0.00;84.70;;;;;;5081721;28;20081;-49
2023/02/06 05:48:02;;;;;;;12.82;8.93;;;0.00;84.80;;;;;;5094020;28;20378;-51
2023/02/06 05:50:28;;;;;;;12.88;9.45;;;0.00;85.10;;;;;;5101770;28;20043;-61
2023/02/06 05:52:54;;;;;;;13.65;9.23;;;0.00;85.10;;;;;;5101911;28;20024;-61
2023/02/06 05:55:19;;;;;;;13.75;8.85;;;0.00;85.00;;;;;;5094523;28;20036;-61
2023/02/06 05:57:45;;;;;;;11.88;9.10;;;0.00;84.90;;;;;;5084490;28;20044;-62
2023/02/06 06:00:12;;;;;;;14.00;9.70;;;0.00;84.90;;;;;;5091254;28;20028;-53
2023/02/06 06:02:38;;;;;;;13.57;9.25;;;0.00;84.60;;;;;;5074758;28;20032;-51
2023/02/06 06:05:04;;;;;;;11.82;8.93;;;0.00;84.60;;;;;;5085821;28;20036;-52
2023/02/06 06:07:29;;;;;;;12.48;8.93;;;0.00;84.50;;;;;;5084433;28;20511;-52
2023/02/06 06:09:56;;;;;;;11.48;8.07;;;0.00;84.40;;;;;;5096839;28;20107;-57
2023/02/06 06:12:21;;;;;;;12.38;8.95;;;0.00;84.10;;;;;;5085145;28;20115;-60
2023/02/06 06:14:47;;;;;;;13.65;9.10;;;0.00;84.00;;;;;;5084757;28;20115;-60
2023/02/06 06:17:12;;;;;;;10.27;8.52;;;0.00;84.00;;;;;;5085759;28;20055;-60
2023/02/06 06:19:38;;;;;;;12.60;8.80;;;0.00;83.90;;;;;;5085384;28;20495;-59
2023/02/06 06:22:04;;;;;;;12.55;9.15;;;0.00;84.10;;;;;;5085344;28;20473;-62
2023/02/06 06:24:29;;;;;;;13.80;9.48;;;0.00;84.10;;;;;;5076406;28;20119;-62
2023/02/06 06:26:55;;;;;;;11.32;8.43;;;0.10;84.20;;;;;;5074529;28;20032;-61
2023/02/06 06:29:21;;;;;;;11.82;8.90;;;0.10;83.90;;;;;;5091033;28;20890;-61
2023/02/06 06:31:47;;;;;;;13.52;8.65;;;0.20;83.90;;;;;;5093249;28;20039;-61
2023/02/06 06:34:12;;;;;;;12.15;8.82;;;0.20;83.80;;;;;;5085794;28;20035;-61
2023/02/06 06:36:38;;;;;;;12.10;9.25;;;0.30;83.70;;;;;;5071829;28;20124;-59
2023/02/06 06:39:03;;;;;;;12.13;8.57;;;0.30;83.50;;;;;;5084501;28;20031;-61
2023/02/06 06:41:29;;;;;;;12.43;9.02;;;0.40;83.20;;;;;;5082666;28;20050;-60
2023/02/06 06:43:56;;;;;;;12.05;9.10;;;0.40;83.10;;;;;;5073396;28;20115;-61
2023/02/06 06:46:22;;;;;;;11.77;9.68;;;0.40;82.80;;;;;;5084567;28;20090;-53
2023/02/06 06:48:48;;;;;;;12.35;9.13;;;0.50;82.70;;;;;;5093895;28;20367;-54
2023/02/06 06:51:13;;;;;;;12.63;9.25;;;0.50;82.50;;;;;;5094858;28;20045;-49
2023/02/06 06:53:39;;;;;;;10.60;8.40;;;0.50;82.40;;;;;;5076220;28;20028;-55
2023/02/06 06:56:06;;;;;;;11.98;8.73;;;0.60;82.20;;;;;;5079824;28;20109;-60
2023/02/06 06:58:33;;;;;;;11.75;8.55;;;0.70;82.20;;;;;;5072696;28;20228;-60
2023/02/06 07:00:59;;;;;;;10.02;7.85;;;0.70;82.00;;;;;;5068617;28;20512;-60
2023/02/06 07:03:25;;;;;;;11.35;8.38;;;0.70;81.90;;;;;;5078141;28;20473;-60
2023/02/06 07:05:50;;;;;;;9.13;7.30;;;0.70;81.90;;;;;;5082235;28;20061;-60
2023/02/06 07:08:16;;;;;;;10.75;7.57;;;0.80;81.90;;;;;;5083169;28;20136;-60
2023/02/06 07:10:42;;;;;;;10.93;8.07;;;0.80;81.80;;;;;;5069958;28;20035;-60
2023/02/06 07:13:07;;;;;;;10.35;7.78;;;0.80;81.50;;;;;;5076104;28;20039;-60
2023/02/06 07:15:33;;;;;;;10.57;8.20;;;0.90;81.40;;;;;;5084312;28;20386;-58
2023/02/06 07:17:59;;;;;;;9.13;7.07;;;0.90;81.00;;;;;;5076594;28;20032;-58
2023/02/06 07:20:24;;;;;;;10.88;7.30;;;0.90;80.80;;;;;;5073900;28;20071;-57
2023/02/06 07:22:50;;;;;;;9.52;7.13;;;0.90;80.60;;;;;;5076167;28;20028;-59
2023/02/06 07:25:18;;;;;;;10.07;7.25;;;1.00;80.50;;;;;;5073766;28;20028;-59
2023/02/06 07:27:45;;;;;;;7.95;6.50;;;1.00;80.40;;;;;;5061553;28;20071;-59
2023/02/06 07:30:12;;;;;;;9.70;7.53;;;1.00;80.00;;;;;;5068300;28;20036;-60
2023/02/06 07:32:38;;;;;;;9.88;7.10;;;1.00;79.90;;;;;;5072941;28;20035;-59
2023/02/06 07:35:05;;;;;;;9.02;6.65;;;1.10;79.70;;;;;;5066188;28;20970;-59
2023/02/06 07:37:31;;;;;;;11.02;8.02;;;1.10;79.20;;;;;;5068914;28;20143;-59
2023/02/06 07:39:56;;;;;;;10.48;7.75;;;1.10;79.00;;;;;;5071709;28;20035;-60
2023/02/06 07:42:22;;;;;;;9.75;7.10;;;1.00;79.10;;;;;;5070851;28;20492;-58
2023/02/06 07:44:48;;;;;;;8.88;7.40;;;1.00;79.50;;;;;;5072187;28;20036;-58
2023/02/06 07:47:13;;;;;;;9.48;7.13;;;1.00;78.90;;;;;;5075214;28;20512;-58
2023/02/06 07:49:39;;;;;;;10.25;7.90;;;1.00;78.50;;;;;;5076423;28;20038;-58
2023/02/06 07:52:05;;;;;;;9.90;7.38;;;1.00;78.50;;;;;;5070499;28;20066;-58
2023/02/06 07:54:31;;;;;;;9.65;7.00;;;0.90;78.20;;;;;;5071976;28;20489;-57
2023/02/06 07:56:56;;;;;;;8.18;6.80;;;0.90;77.60;;;;;;5066849;28;20056;-57
2023/02/06 07:59:22;;;;;;;9.10;7.25;;;0.90;77.40;;;;;;5058146;28;20032;-57
2023/02/06 08:01:48;;;;;;;8.38;6.80;;;0.80;77.80;;;;;;5049671;28;20039;-58
2023/02/06 08:04:13;;;;;;;9.38;6.95;;;0.90;77.80;;;;;;5065578;28;20027;-61
2023/02/06 08:06:41;;;;;;;8.40;6.93;;;0.80;77.80;;;;;;5065083;28;20805;-59
2023/02/06 08:09:11;;;;;;;8.63;6.97;;;0.90;77.80;;;;;;5066430;28;20035;-56
2023/02/06 08:11:36;;;;;;;8.82;6.95;;;0.90;77.50;;;;;;5076915;28;20473;-59
2023/02/06 08:14:02;;;;;;;7.63;6.80;;;0.90;77.40;;;;;;5068760;28;20050;-58
2023/02/06 08:16:27;;;;;;;8.93;6.95;;;0.90;77.20;;;;;;5065509;28;20031;-59
2023/02/06 08:18:53;;;;;;;8.95;7.22;;;0.90;76.60;;;;;;5069313;28;20128;-60
2023/02/06 08:21:22;;;;;;;9.35;7.50;;;0.90;76.50;;;;;;5053701;28;20044;-59
2023/02/06 08:23:56;;;;;;;9.63;7.22;;;1.00;77.10;;;;;;5064390;28;20047;-60
2023/02/06 08:26:23;;;;;;;9.52;7.30;;;1.00;77.10;;;;;;5058689;28;20032;-57
2023/02/06 08:28:50;;;;;;;9.35;6.70;;;1.00;77.30;;;;;;5067763;28;20124;-58
2023/02/06 08:31:17;;;;;;;8.70;7.10;;;1.00;76.90;;;;;;5068264;28;20119;-60
2023/02/06 08:33:43;;;;;;;9.40;7.20;;;1.00;77.00;;;;;;5057408;28;20916;-59
2023/02/06 08:36:10;;;;;;;9.32;7.68;;;1.10;76.80;;;;;;5061696;28;20639;-57
2023/02/06 08:38:36;;;;;;;9.73;7.35;;;1.20;77.00;;;;;;5067579;28;20059;-58
2023/02/06 08:41:02;;;;;;;8.68;7.07;;;1.20;76.80;;;;;;5073632;28;20035;-58
2023/02/06 08:43:28;;;;;;;9.70;7.40;;;1.30;76.90;;;;;;5074273;28;20028;-58
2023/02/06 08:45:58;;;;;;;9.88;7.03;;;1.40;76.90;;;;;;5064828;28;20071;-58
2023/02/06 08:48:26;;;;;;;9.65;7.80;;;1.50;76.90;;;;;;5067313;28;20085;-58
2023/02/06 08:51:01;;;;;;;8.90;7.13;;;1.50;76.20;;;;;;5072958;28;20075;-59
2023/02/06 08:53:27;;;;;;;10.68;7.43;;;1.60;75.60;;;;;;5075032;28;20086;-57
2023/02/06 08:56:01;;;;;;;9.05;7.50;;;1.70;75.80;;;;;;5070014;28;20960;-60
2023/02/06 08:58:27;;;;;;;10.27;7.82;;;1.70;75.30;;;;;;5065143;28;20044;-57
2023/02/06 09:00:53;;;;;;;10.13;7.10;;;1.70;75.00;;;;;;5072743;28;20066;-57
2023/02/06 09:03:22;;;;;;;10.38;7.32;;;1.80;74.40;;;;;;5070415;28;20126;-56
2023/02/06 09:05:48;;;;;;;10.50;7.85;;;1.80;74.40;;;;;;5069059;28;20032;-56
2023/02/06 09:08:15;;;;;;;9.18;7.00;;;1.90;74.30;;;;;;5066262;28;20032;-57
2023/02/06 09:10:40;;;;;;;9.77;7.57;;;1.90;74.10;;;;;;5068395;28;20051;-56
2023/02/06 09:13:06;;;;;;;8.98;7.72;;;2.00;74.30;;;;;;5063607;28;20549;-56
2023/02/06 09:15:31;;;;;;;10.20;8.02;;;2.00;74.10;;;;;;5063423;28;20120;-55
2023/02/06 09:17:57;;;;;;;9.52;7.13;;;2.00;74.10;;;;;;5069358;28;20027;-57
2023/02/06 09:20:25;;;;;;;10.25;7.38;;;2.10;73.70;;;;;;5061252;28;20028;-57
2023/02/06 09:22:51;;;;;;;9.43;6.95;;;2.10;73.80;;;;;;5054639;28;20174;-58
2023/02/06 09:25:18;;;;;;;9.35;6.85;;;2.10;73.70;;;;;;5065765;28;20389;-57
2023/02/06 09:27:45;;;;;;;10.50;8.10;;;2.10;73.60;;;;;;5059129;28;20418;-57
2023/02/06 09:30:12;;;;;;;10.50;7.30;;;2.10;73.30;;;;;;5056953;28;20169;-60
2023/02/06 09:32:38;;;;;;;7.97;6.85;;;2.10;73.10;;;;;;5036972;28;20028;-60
2023/02/06 09:35:05;;;;;;;9.68;7.40;;;2.10;73.10;;;;;;5060249;28;20021;-59
2023/02/06 09:37:30;;;;;;;13.07;7.95;;;2.10;73.00;;;;;;5066383;28;20032;-60
2023/02/06 09:39:56;;;;;;;10.35;7.75;;;2.10;72.60;;;;;;5065729;28;20073;-56
2023/02/06 09:42:36;;;;;;;9.20;7.50;;;2.10;72.90;;;;;;5066787;28;20439;-59
2023/02/06 09:45:14;;;;;;;10.88;8.30;;;2.10;73.30;;;;;;5071197;28;20040;-59
2023/02/06 09:48:15;;;;;;;10.95;8.18;;;2.10;73.20;;;;;;5070499;28;20161;-59
2023/02/06 09:50:55;;;;;;;10.65;7.13;;;2.00;73.20;;;;;;5066115;28;21425;-56
2023/02/06 09:53:32;;;;;;;10.00;8.07;;;2.00;73.20;;;;;;5058128;28;20024;-59
2023/02/06 09:56:11;;;;;;;10.73;7.82;;;2.00;73.10;;;;;;5065042;28;20062;-60
2023/02/06 09:59:06;;;;;;;9.88;7.90;;;2.00;72.80;;;;;;5070952;28;20397;-59
2023/02/06 10:01:50;;;;;;;10.02;7.50;;;2.00;73.20;;;;;;5016510;28;20055;-60
2023/02/06 10:04:31;;;;;;;9.63;6.90;;;2.00;72.80;;;;;;5055130;28;20373;-60
2023/02/06 10:07:13;;;;;;;10.55;8.05;;;2.00;72.30;;;;;;5058435;28;20094;-60
2023/02/06 10:09:44;;;;;;;;;;;2.00;72.30;;;;;;5059683;28;20029;-60
2023/02/06 10:12:35;;;;;;;11.10;8.38;;;1.90;72.20;;;;;;5058489;28;19998;-61
2023/02/06 10:15:08;;;;;;;10.60;7.82;;;2.00;72.80;;;;;;5063908;28;20164;-58
2023/02/06 10:17:44;;;;;;;8.60;6.70;;;2.00;73.30;;;;;;5059378;28;20036;-58
2023/02/06 10:20:45;;;;;;;10.30;7.43;;;2.00;73.10;;;;;;5056558;28;20024;-57
2023/02/06 10:23:13;;;;;;;9.15;6.88;;;2.10;72.60;;;;;;5063921;28;20631;-57
2023/02/06 10:26:16;;;;;;;9.25;7.20;;;2.00;72.30;;;;;;5050753;28;20449;-59
2023/02/06 10:28:51;;;;;;;10.32;6.90;;;2.00;72.00;;;;;;5040149;28;20024;-60
2023/02/06 10:31:19;;;;;;;9.18;6.72;;;2.00;71.60;;;;;;5058213;28;20051;-59
2023/02/06 10:34:11;;;;;;;8.70;6.43;;;2.00;71.70;;;;;;5063935;28;20569;-60
2023/02/06 10:36:43;;;;;;;8.90;6.88;;;2.00;71.70;;;;;;5061058;28;20036;-59
2023/02/06 10:39:19;;;;;;;;;;;2.00;71.60;;;;;;5069706;28;20032;-56
2023/02/06 10:42:06;;;;;;;9.57;7.22;;;1.90;71.50;;;;;;5067322;28;20563;-58
2023/02/06 10:44:41;;;;;;;9.32;6.53;;;2.00;71.40;;;;;;5065163;28;20123;-58
2023/02/06 10:47:34;;;;;;;8.55;6.72;;;2.00;72.10;;;;;;5066387;28;20032;-59
2023/02/06 10:50:19;;;;;;;8.27;6.45;;;2.10;72.10;;;;;;5057666;28;20040;-61
2023/02/06 10:52:46;;;;;;;8.52;6.50;;;2.00;72.20;;;;;;5068389;28;20474;-61
2023/02/06 10:55:26;;;;;;;8.77;7.07;;;2.10;71.90;;;;;;5065465;28;20156;-61
2023/02/06 10:58:27;;;;;;;9.13;7.13;;;2.10;71.70;;;;;;5069429;28;20804;-60
2023/02/06 11:00:54;;;;;;;8.33;7.33;;;2.00;71.10;;;;;;5058551;28;20129;-61
2023/02/06 11:03:30;;;;;;;9.07;6.85;;;2.00;71.20;;;;;;5074365;28;21160;-61
2023/02/06 11:05:57;;;;;;;9.95;6.82;;;2.00;71.10;;;;;;5071457;28;20051;-59
2023/02/06 11:08:32;;;;;;;9.82;7.22;;;1.90;70.80;;;;;;5069608;28;20036;-59
2023/02/06 11:11:18;;;;;;;10.85;7.35;;;1.90;71.00;;;;;;5068702;28;20056;-59
2023/02/06 11:13:47;;;;;;;8.90;6.93;;;1.90;70.90;;;;;;5054825;28;20036;-59
2023/02/06 11:16:16;;;;;;;7.95;6.25;;;1.90;71.60;;;;;;5058390;28;20435;-56
2023/02/06 11:18:46;;;;;;;8.70;6.40;;;1.90;71.50;;;;;;5063731;28;20040;-59
2023/02/06 11:21:13;;;;;;;9.45;6.70;;;1.90;71.30;;;;;;5063604;28;20070;-59
2023/02/06 11:23:41;;;;;;;8.65;6.78;;;1.90;71.10;;;;;;5069131;28;20173;-59
2023/02/06 11:26:14;;;;;;;8.45;6.18;;;1.90;71.40;;;;;;5068360;28;20170;-58
2023/02/06 11:28:52;;;;;;;7.78;6.05;;;1.90;71.10;;;;;;5064526;28;20062;-59
2023/02/06 11:31:20;;;;;;;9.20;6.43;;;1.90;71.30;;;;;;5067107;28;20077;-59
2023/02/06 11:33:56;;;;;;;8.40;6.13;;;1.90;71.30;;;;;;5051978;28;20028;-59
2023/02/06 11:36:34;;;;;;;7.20;6.30;;;1.90;70.80;;;;;;5070185;28;20024;-59
2023/02/06 11:39:26;;;;;;;7.97;6.28;;;2.00;71.00;;;;;;5066621;28;20043;-59
2023/02/06 11:42:17;;;;;;;8.18;6.65;;;2.00;70.70;;;;;;5066747;28;20039;-58
2023/02/06 11:44:44;;;;;;;7.97;5.80;;;2.00;70.20;;;;;;5057887;28;20077;-58
2023/02/06 11:47:31;;;;;;;9.35;6.32;;;2.00;70.30;;;;;;5074305;28;20043;-59
2023/02/06 11:50:27;;;;;;;9.02;6.35;;;2.00;70.00;;;;;;5070666;28;20032;-60
2023/02/06 11:53:10;;;;;;;7.70;6.05;;;2.10;70.30;;;;;;5069357;28;20028;-59
2023/02/06 11:55:38;;;;;;;8.07;6.25;;;2.10;70.30;;;;;;5069159;28;20032;-58
2023/02/06 11:58:12;;;;;;;9.15;6.70;;;2.10;70.60;;;;;;5067788;28;20066;-59
2023/02/06 12:01:00;;;;;;;8.65;5.90;;;2.10;70.50;;;;;;5056400;28;20036;-61
2023/02/06 12:03:42;;;;;;;8.13;6.28;;;2.10;70.20;;;;;;5061315;28;20039;-60
2023/02/06 12:06:16;;;;;;;7.75;5.95;;;2.10;70.00;;;;;;5065050;28;21944;-59
2023/02/06 12:08:49;;;;;;;7.43;6.07;;;2.10;69.70;;;;;;5062256;28;20069;-58
2023/02/06 12:11:25;;;;;;;7.68;6.10;;;2.00;69.50;;;;;;5058527;28;20082;-59
2023/02/06 12:14:17;;;;;;;8.60;6.50;;;2.00;69.40;;;;;;5062574;28;20038;-59
2023/02/06 12:16:46;;;;;;;;;;;2.00;69.10;;;;;;5065462;28;20063;-58
2023/02/06 12:19:20;;;;;;;7.72;6.03;;;1.90;68.50;;;;;;5065584;28;19965;-59
2023/02/06 12:21:56;;;;;;;8.30;6.13;;;2.00;69.40;;;;;;5069052;28;20587;-58
2023/02/06 12:24:33;;;;;;;7.28;6.00;;;2.00;70.10;;;;;;5043016;28;20040;-59
2023/02/06 12:27:04;;;;;;;9.07;6.63;;;2.00;69.60;;;;;;5066141;28;20039;-58
2023/02/06 12:29:42;;;;;;;9.35;6.35;;;2.00;69.60;;;;;;5066314;28;20028;-59
2023/02/06 12:32:17;;;;;;;8.27;6.43;;;2.00;69.80;;;;;;5067926;28;20032;-59
2023/02/06 12:34:52;;;;;;;8.15;5.75;;;2.00;69.70;;;;;;5071652;28;20032;-60
2023/02/06 12:37:39;;;;;;;7.82;6.40;;;2.00;69.50;;;;;;5065702;28;20036;-59
2023/02/06 12:40:23;;;;;;;8.55;6.30;;;2.00;69.80;;;;;;5069077;28;20036;-58
2023/02/06 12:43:16;;;;;;;7.68;6.10;;;2.00;69.50;;;;;;5066311;28;20047;-57
2023/02/06 12:45:51;;;;;;;8.90;6.80;;;2.00;69.60;;;;;;5059184;28;20183;-58
2023/02/06 12:48:39;;;;;;;7.38;6.13;;;2.00;69.50;;;;;;5067944;28;20035;-60
2023/02/06 12:51:21;;;;;;;9.02;6.53;;;2.00;69.10;;;;;;5061051;28;20462;-61
2023/02/06 12:53:59;;;;;;;8.50;6.50;;;2.00;69.60;;;;;;5068011;28;20032;-59
2023/02/06 12:56:35;;;;;;;7.50;5.93;;;1.90;69.60;;;;;;5073167;28;20089;-61
2023/02/06 12:59:09;;;;;;;8.57;6.68;;;1.90;69.70;;;;;;5063886;28;21779;-59
2023/02/06 13:01:47;;;;;;;8.20;7.07;;;1.90;69.60;;;;;;5070220;28;20469;-59
2023/02/06 13:04:22;;;;;;;9.35;6.32;;;1.90;69.60;;;;;;5070679;28;20060;-58
2023/02/06 13:07:08;;;;;;;8.15;6.15;;;1.90;70.40;;;;;;5074263;28;20092;-58
2023/02/06 13:09:45;;;;;;;9.77;6.85;;;2.00;70.80;;;;;;5075240;28;20029;-60